Aeroporto :
LOGIN :

Iscrizione | Disclaimer

   EN    FR    IT 

 










Sommario :    VFR   VFR Marginale   IFR   IFR Intensivo   IFR Molto Intensivo
Visibilità : 
Base nubi : 
>= 8 km
>= 3000ft
5 / 8 km
1000 / 3000 ft
1500m / 5 km
500 / 1000 ft
800 / 1500m
200 / 500 ft
< 800m
< 200 ft
Simboli :   Temporali  Nebbia  Neve Forte  Precipitazioni Forti  Vento > 20 kt
SIGMETs :   Varie  Temporali  Ghiacco  Turbolenza  Onda orograficha  Ceneri Vulcaniche







- Altitudine del aeroporto : 209 ft
- Codice IATA : CLY
- Carte del aeroporto


LFKC - Calvi

ULTIMO METAR :
  • 161900Z AUTO 21004KT 9999 FEW024 08/06 Q1029 NOSIG

METARs OBSOLETI :
  • 161830Z AUTO 18003KT 9999 SCT025 08/06 Q1030 NOSIG
  • 161800Z AUTO 20003KT 9999 SCT024 09/07 Q1030 NOSIG
  • 161730Z AUTO VRB02KT 9999 FEW025 10/07 Q1029 NOSIG
  • 161700Z AUTO 09005KT 9999 FEW027 11/08 Q1029 NOSIG
  • 161630Z AUTO VRB03KT 9999 FEW027 13/08 Q1029 NOSIG

TAF TAF LFKC
Valido dal 16 a 15 ore il 17 a 15 ore UTC


161400Z 1615/1715 34005KT 9999 FEW040 TX15/1615Z TN04/1705Z
ATIS : +33 4 95 65 82 49
Nessun NOTAM noto per questo aeroporto.



MetMap, La meteo Aeronautica in un colpo d'occhio ! - Copyright ORBIFLY Dicembre 2007 - Disclaimer

ORBIFLY MET'MAP TEAM :

Programmazione e sviluppo : Alexandra Zaïnal
Concezione e sviluppo : Baudouin d'Aumeries
Co-Programmazione e sviluppo : Marc-Olivier Méhu
Supporto tecnico e logistico : Manuel Goepfert
Aiuto per la traduzione : Arnaldo La Scala

Contatto : metmap@orbifly.com




FONTI E CREDITI :

   NOAA